createdAt,value
2022-11-24T00:04:49.171Z,5.56
2022-11-24T00:11:50.926Z,5.52
2022-11-24T00:18:53.833Z,5.47
2022-11-24T00:25:55.512Z,5.55
2022-11-24T00:32:57.184Z,5.43
2022-11-24T00:39:58.819Z,5.41
2022-11-24T00:47:00.826Z,5.53
2022-11-24T00:54:02.883Z,5.55
2022-11-24T01:01:08.310Z,5.56
2022-11-24T01:08:10.020Z,5.61
2022-11-24T01:15:11.718Z,5.49
2022-11-24T01:22:13.604Z,5.53
2022-11-24T01:29:15.307Z,5.65
2022-11-24T01:36:16.947Z,5.58
2022-11-24T01:43:20.113Z,5.49
2022-11-24T01:50:21.726Z,5.38
2022-11-24T01:57:31.373Z,5.45
2022-11-24T02:04:33.715Z,5.41
2022-11-24T02:11:37.365Z,5.51
2022-11-24T02:18:39.043Z,5.55
2022-11-24T02:25:52.183Z,5.58
2022-11-24T02:32:53.928Z,5.50
2022-11-24T02:39:55.595Z,5.61
2022-11-24T02:47:23.695Z,5.60
2022-11-24T02:54:25.409Z,5.44
2022-11-24T03:01:27.156Z,5.46
2022-11-24T03:08:28.871Z,5.46
2022-11-24T03:15:30.658Z,5.46
2022-11-24T03:22:32.469Z,5.40
2022-11-24T03:29:34.104Z,5.50
2022-11-24T03:36:35.739Z,5.45
2022-11-24T03:43:43.219Z,5.37
2022-11-24T03:50:52.935Z,5.48
2022-11-24T03:57:54.574Z,5.51
2022-11-24T04:04:56.243Z,5.38
2022-11-24T04:12:16.640Z,5.36
2022-11-24T04:19:18.287Z,5.34
2022-11-24T04:26:19.950Z,5.32
2022-11-24T04:33:21.584Z,5.28
2022-11-24T04:40:23.244Z,5.28
2022-11-24T04:47:25.524Z,5.39
2022-11-24T04:54:27.179Z,5.36
2022-11-24T05:01:28.912Z,5.39
2022-11-24T05:08:30.587Z,5.53
2022-11-24T05:15:32.353Z,5.43
2022-11-24T05:22:33.929Z,5.26
2022-11-24T05:29:35.473Z,5.32
2022-11-24T05:36:56.205Z,5.36
2022-11-24T05:43:57.755Z,5.35
2022-11-24T05:50:59.393Z,5.22
2022-11-24T05:58:01.550Z,5.22
2022-11-24T06:05:03.223Z,5.27
2022-11-24T06:12:07.890Z,5.22
2022-11-24T06:19:10.454Z,5.32
2022-11-24T06:26:12.032Z,5.11
2022-11-24T06:33:13.618Z,5.13
2022-11-24T06:40:15.190Z,5.18
2022-11-24T06:47:16.968Z,5.23
2022-11-24T06:54:20.995Z,5.17
2022-11-24T07:01:27.170Z,5.22
2022-11-24T07:08:28.804Z,5.20
2022-11-24T07:15:30.514Z,5.09
2022-11-24T07:22:32.105Z,5.06
2022-11-24T07:29:33.686Z,5.15
2022-11-24T07:36:35.241Z,5.20
2022-11-24T07:43:37.332Z,5.33
2022-11-24T07:50:39.407Z,5.41
2022-11-24T07:57:41.114Z,5.43
2022-11-24T08:04:42.919Z,5.43
2022-11-24T08:11:44.476Z,5.52
2022-11-24T08:18:50.653Z,5.50
2022-11-24T08:25:56.733Z,5.51
2022-11-24T08:33:00.255Z,5.57
2022-11-24T08:40:01.855Z,5.57
2022-11-24T08:47:03.543Z,5.70
2022-11-24T08:54:05.175Z,5.80
2022-11-24T09:01:16.567Z,5.81
2022-11-24T09:08:18.199Z,5.83
2022-11-24T09:15:20.310Z,5.75
2022-11-24T09:22:21.943Z,5.86
2022-11-24T09:29:23.567Z,5.98
2022-11-24T09:36:25.173Z,6.03
2022-11-24T09:43:35.358Z,6.18
2022-11-24T09:50:37.389Z,6.23
2022-11-24T09:57:38.962Z,6.46
2022-11-24T10:04:43.213Z,6.52
2022-11-24T10:12:04.695Z,6.87
2022-11-24T10:19:34.448Z,6.85
2022-11-24T10:26:39.644Z,6.92
2022-11-24T10:33:41.256Z,7.11
2022-11-24T10:41:00.468Z,7.26
2022-11-24T10:48:02.055Z,7.72
2022-11-24T10:55:04.749Z,7.83
2022-11-24T11:02:35.773Z,8.02
2022-11-24T11:09:37.555Z,8.18
2022-11-24T11:16:43.780Z,8.41
2022-11-24T11:23:45.338Z,8.69
2022-11-24T11:31:17.888Z,8.83
2022-11-24T11:38:20.565Z,8.81
2022-11-24T11:45:26.610Z,8.92
2022-11-24T11:52:48.079Z,9.01
2022-11-24T12:00:05.178Z,8.99
2022-11-24T12:07:31.938Z,9.07
2022-11-24T12:15:21.286Z,9.06
2022-11-24T12:22:42.902Z,9.07
2022-11-24T12:30:09.554Z,9.20
2022-11-24T12:37:33.257Z,9.15
2022-11-24T12:44:50.873Z,9.11
2022-11-24T12:51:58.213Z,9.17
2022-11-24T12:59:18.069Z,9.41
2022-11-24T13:06:32.670Z,9.35
2022-11-24T13:13:57.653Z,9.25
2022-11-24T13:20:59.234Z,9.33
2022-11-24T13:28:06.450Z,9.34
2022-11-24T13:35:17.181Z,9.47
2022-11-24T13:42:41.835Z,9.41
2022-11-24T13:49:41.411Z,9.32
2022-11-24T13:56:42.988Z,9.12
2022-11-24T14:11:14.423Z,9.30
2022-11-24T14:18:18.342Z,9.17
2022-11-24T14:25:31.076Z,9.12
2022-11-24T14:32:32.658Z,9.15
2022-11-24T14:39:41.877Z,9.04
2022-11-24T14:46:43.774Z,8.94
2022-11-24T14:53:45.672Z,8.74
2022-11-24T15:01:07.846Z,8.77
2022-11-24T15:08:10.851Z,8.76
2022-11-24T15:15:15.472Z,8.64
2022-11-24T15:22:38.782Z,8.72
2022-11-24T15:29:40.352Z,8.63
2022-11-24T15:36:43.031Z,8.51
2022-11-24T15:43:44.648Z,8.48
2022-11-24T15:50:46.940Z,8.43
2022-11-24T15:57:48.775Z,8.46
2022-11-24T16:04:51.206Z,8.47
2022-11-24T16:11:52.871Z,8.47
2022-11-24T16:18:54.526Z,8.40
2022-11-24T16:25:56.122Z,8.28
2022-11-24T16:32:57.723Z,8.32
2022-11-24T16:40:01.435Z,8.30
2022-11-24T16:47:03.059Z,8.33
2022-11-24T16:54:04.728Z,8.16
2022-11-24T17:01:07.435Z,8.26
2022-11-24T17:08:09.117Z,8.27
2022-11-24T17:15:31.830Z,8.22
2022-11-24T17:22:32.393Z,8.13
2022-11-24T17:29:33.946Z,8.22
2022-11-24T17:36:35.701Z,8.27
2022-11-24T17:43:37.288Z,8.39
2022-11-24T17:50:38.878Z,8.30
2022-11-24T17:57:40.459Z,8.24
2022-11-24T18:04:42.025Z,8.17
2022-11-24T18:11:43.665Z,8.20
2022-11-24T18:18:50.081Z,8.10
2022-11-24T18:25:53.959Z,8.23
2022-11-24T18:32:55.550Z,8.27
2022-11-24T18:39:57.223Z,8.30
2022-11-24T18:46:58.780Z,8.31
2022-11-24T18:54:02.084Z,8.31
2022-11-24T19:01:16.895Z,8.24
2022-11-24T19:08:18.859Z,8.15
2022-11-24T19:15:20.447Z,8.13
2022-11-24T19:22:22.059Z,8.16
2022-11-24T19:29:23.804Z,8.03
2022-11-24T19:36:26.195Z,8.07
2022-11-24T19:43:27.983Z,7.92
2022-11-24T19:50:29.584Z,8.01
2022-11-24T19:57:31.139Z,7.98
2022-11-24T20:04:33.595Z,7.83
2022-11-24T20:11:35.582Z,7.85
2022-11-24T20:18:41.926Z,7.83
2022-11-24T20:25:44.160Z,7.78
2022-11-24T20:32:45.772Z,7.59
2022-11-24T20:39:47.919Z,7.54
2022-11-24T20:46:49.618Z,7.44
2022-11-24T20:53:52.527Z,7.46
2022-11-24T21:00:54.167Z,7.50
2022-11-24T21:07:55.789Z,7.47
2022-11-24T21:14:57.395Z,7.42
2022-11-24T21:21:58.982Z,7.41
2022-11-24T21:29:00.616Z,7.35
2022-11-24T21:36:03.106Z,7.26
2022-11-24T21:43:04.725Z,7.31
2022-11-24T21:50:07.272Z,7.27
2022-11-24T21:57:08.870Z,7.21
2022-11-24T22:04:10.488Z,7.19
2022-11-24T22:11:19.964Z,7.24
2022-11-24T22:18:21.567Z,7.19
2022-11-24T22:25:23.126Z,7.16
2022-11-24T22:32:24.682Z,7.22
2022-11-24T22:39:26.268Z,7.22
2022-11-24T22:46:28.510Z,7.32
2022-11-24T22:53:30.182Z,7.32
2022-11-24T23:00:31.819Z,7.34
2022-11-24T23:07:33.486Z,7.22
2022-11-24T23:14:35.292Z,7.27
2022-11-24T23:21:40.640Z,7.32
2022-11-24T23:28:43.141Z,7.35
2022-11-24T23:35:44.690Z,7.33
2022-11-24T23:42:49.386Z,7.48
2022-11-24T23:49:50.938Z,7.44
2022-11-24T23:56:52.518Z,7.47
